Time;durP1;ratioP1;P1;durP2;ratioP2;P2;SDS_P1;SDS_P2;PMS_P1;PMS_P2;Temp;Humidity;BMP_temperature;BMP_pressure;BME280_temperature;BME280_humidity;BME280_pressure;Samples;Min_cycle;Max_cycle;Signal;HPM_P1;HPM_P2
2022/01/24 00:01:31;;;;;;;19.80;10.10;;;;;;;4.94;100.00;102797.98;107883;1279;59269;-72
2022/01/24 00:03:59;;;;;;;14.90;8.20;;;;;;;4.94;100.00;102800.80;107873;1279;61146;-72
2022/01/24 00:06:26;;;;;;;19.40;9.20;;;;;;;4.92;100.00;102802.63;107908;1279;60669;-73
2022/01/24 00:08:53;;;;;;;20.90;9.00;;;;;;;4.92;100.00;102799.67;107904;1281;76032;-73
2022/01/24 00:11:25;;;;;;;15.40;9.10;;;;;;;4.90;100.00;102800.95;107795;1280;71388;-72
2022/01/24 00:16:32;;;;;;;19.10;9.60;;;;;;;4.90;100.00;102796.59;107749;1281;61652;-72
2022/01/24 00:27:03;;;;;;;17.40;9.10;;;;;;;4.86;100.00;102791.75;107927;1279;73158;-74
2022/01/24 00:29:30;;;;;;;14.20;8.20;;;;;;;4.85;100.00;102791.44;107877;1280;61449;-74
2022/01/24 00:31:56;;;;;;;15.20;8.50;;;;;;;4.85;100.00;102792.19;107749;1280;60789;-72
2022/01/24 00:34:23;;;;;;;19.70;10.00;;;;;;;4.85;100.00;102796.02;107923;1278;74999;-74
2022/01/24 00:36:51;;;;;;;20.40;10.40;;;;;;;4.85;100.00;102794.98;107878;1280;72641;-74
2022/01/24 00:39:20;;;;;;;17.20;9.30;;;;;;;4.86;100.00;102796.67;107883;1279;74322;-72
2022/01/24 00:44:45;;;;;;;16.40;9.10;;;;;;;4.87;100.00;102796.74;107876;1280;59351;-73
2022/01/24 00:47:19;;;;;;;18.50;10.50;;;;;;;4.86;100.00;102794.91;107774;1279;75078;-72
2022/01/24 00:53:10;;;;;;;17.20;9.50;;;;;;;4.87;100.00;102797.80;107885;1280;71508;-74
2022/01/24 00:55:48;;;;;;;15.00;8.80;;;;;;;4.90;100.00;102792.77;107375;1284;62909;-74
2022/01/24 00:58:15;;;;;;;17.30;9.50;;;;;;;4.90;100.00;102795.70;107423;1283;60939;-74
2022/01/24 01:00:42;;;;;;;18.60;9.80;;;;;;;4.90;100.00;102793.61;107612;1279;74789;-74
2022/01/24 01:03:09;;;;;;;17.10;10.00;;;;;;;4.90;100.00;102788.37;107851;1280;72833;-73
2022/01/24 01:19:22;;;;;;;16.90;9.60;;;;;;;4.95;100.00;102786.51;107893;1279;72392;-71
2022/01/24 01:21:49;;;;;;;16.30;8.50;;;;;;;4.95;100.00;102786.89;107851;1280;59049;-72
2022/01/24 01:24:17;;;;;;;16.80;9.50;;;;;;;4.93;100.00;102789.29;107878;1280;60467;-73
2022/01/24 01:26:50;;;;;;;20.30;8.90;;;;;;;4.92;100.00;102787.41;107874;1279;75245;-71
2022/01/24 01:29:23;;;;;;;18.00;10.70;;;;;;;4.93;100.00;102791.39;107868;1278;71514;-72
2022/01/24 01:34:53;;;;;;;16.70;9.50;;;;;;;4.96;100.00;102792.27;107855;1281;61163;-73
2022/01/24 01:56:11;;;;;;;16.50;9.30;;;;;;;4.99;100.00;102787.20;107772;1281;71526;-73
2022/01/24 01:58:37;;;;;;;15.60;9.10;;;;;;;5.03;100.00;102791.37;107860;1279;74123;-75
2022/01/24 02:01:06;;;;;;;19.40;9.40;;;;;;;5.04;100.00;102788.98;107838;1280;62727;-74
2022/01/24 02:03:33;;;;;;;16.60;9.40;;;;;;;5.06;100.00;102792.05;107854;1281;60396;-72
2022/01/24 02:06:00;;;;;;;19.60;9.90;;;;;;;5.09;100.00;102794.49;107846;1281;75995;-73
2022/01/24 02:08:29;;;;;;;15.70;9.60;;;;;;;5.10;100.00;102788.81;107834;1279;71532;-72
2022/01/24 02:10:57;;;;;;;19.70;9.80;;;;;;;5.12;100.00;102786.08;107842;1281;74010;-72
2022/01/24 02:13:26;;;;;;;18.40;10.70;;;;;;;5.13;100.00;102782.02;107839;1279;61422;-72
2022/01/24 02:21:42;;;;;;;21.00;11.10;;;;;;;5.10;100.00;102784.08;107377;1284;71316;-72
2022/01/24 02:24:15;;;;;;;17.40;10.10;;;;;;;5.09;100.00;102782.41;107817;1279;73001;-73
2022/01/24 02:26:42;;;;;;;20.30;10.60;;;;;;;5.06;100.00;102786.06;107826;1280;61584;-74
2022/01/24 02:29:23;;;;;;;20.80;11.20;;;;;;;5.04;100.00;102780.42;107761;1281;59589;-72
2022/01/24 02:31:51;;;;;;;19.40;10.70;;;;;;;5.02;100.00;102784.90;107851;1279;75030;-74
2022/01/24 02:34:37;;;;;;;19.90;9.50;;;;;;;4.99;100.00;102782.09;107866;1279;71689;-73
2022/01/24 02:37:11;;;;;;;18.70;10.00;;;;;;;4.97;100.00;102775.55;107850;1280;73799;-73
2022/01/24 02:53:09;;;;;;;17.00;9.70;;;;;;;4.96;100.00;102763.31;107819;1279;62531;-74
2022/01/24 02:55:37;;;;;;;20.40;10.90;;;;;;;4.94;100.00;102763.46;107708;1281;60559;-72
2022/01/24 02:58:05;;;;;;;16.70;9.80;;;;;;;4.92;100.00;102768.09;107866;1280;73958;-74
2022/01/24 03:00:33;;;;;;;18.20;10.30;;;;;;;4.92;100.00;102769.55;107820;1280;72541;-72
2022/01/24 03:03:00;;;;;;;17.90;9.90;;;;;;;4.91;100.00;102773.76;107842;1280;72985;-74
2022/01/24 03:05:27;;;;;;;19.50;9.60;;;;;;;4.90;100.00;102775.23;107857;1281;60299;-74
2022/01/24 03:07:53;;;;;;;18.90;9.30;;;;;;;4.89;100.00;102774.39;107736;1280;59588;-71
2022/01/24 03:10:41;;;;;;;16.50;9.10;;;;;;;4.88;100.00;102766.19;107858;1280;75977;-71
2022/01/24 03:13:30;;;;;;;17.60;10.50;;;;;;;4.89;100.00;102765.77;107773;1281;71355;-73
2022/01/24 03:15:59;;;;;;;18.70;10.00;;;;;;;4.88;100.00;102758.31;107850;1279;73172;-71
2022/01/24 03:18:27;;;;;;;18.90;10.70;;;;;;;4.88;100.00;102761.98;107823;1280;61160;-71
2022/01/24 03:20:54;;;;;;;17.90;9.70;;;;;;;4.90;100.00;102762.96;107855;1279;61607;-73
2022/01/24 03:23:23;;;;;;;20.00;10.40;;;;;;;4.92;100.00;102766.52;107778;1280;76146;-73
2022/01/24 03:25:50;;;;;;;13.00;8.10;;;;;;;4.94;100.00;102770.80;107864;1281;72475;-71
2022/01/24 03:28:16;;;;;;;15.40;9.40;;;;;;;4.94;100.00;102772.20;107828;1279;73975;-73
2022/01/24 03:30:43;;;;;;;14.20;8.20;;;;;;;4.93;100.00;102770.16;107760;1281;58932;-73
2022/01/24 03:33:10;;;;;;;15.00;8.20;;;;;;;4.93;100.00;102770.85;107704;1280;60397;-71
2022/01/24 03:35:40;;;;;;;15.80;9.00;;;;;;;4.92;100.00;102772.16;107815;1280;75215;-71
2022/01/24 03:38:07;;;;;;;13.50;8.70;;;;;;;4.89;100.00;102768.58;107707;1280;73089;-73
2022/01/24 03:40:33;;;;;;;17.60;7.80;;;;;;;4.87;100.00;102765.17;107838;1281;72949;-72
2022/01/24 03:43:00;;;;;;;18.50;9.40;;;;;;;4.85;100.00;102768.98;107765;1281;63258;-73
2022/01/24 03:45:43;;;;;;;15.00;9.30;;;;;;;4.86;100.00;102764.56;107812;1281;60454;-72
2022/01/24 03:48:25;;;;;;;15.00;9.50;;;;;;;4.87;100.00;102762.92;107822;1280;75873;-73
2022/01/24 03:50:52;;;;;;;16.70;9.30;;;;;;;4.87;100.00;102763.10;107790;1280;72592;-73
2022/01/24 03:53:19;;;;;;;15.30;10.00;;;;;;;4.90;100.00;102763.30;107744;1281;72935;-73
2022/01/24 03:55:46;;;;;;;17.30;10.70;;;;;;;4.94;100.00;102764.86;107785;1280;61352;-71
2022/01/24 03:58:12;;;;;;;16.60;9.90;;;;;;;4.97;100.00;102760.66;107737;1279;59507;-73
2022/01/24 04:00:39;;;;;;;15.20;9.20;;;;;;;4.98;100.00;102757.23;107793;1280;76070;-70
2022/01/24 04:03:06;;;;;;;16.20;9.70;;;;;;;4.99;100.00;102756.48;107807;1280;72559;-73
2022/01/24 04:05:33;;;;;;;17.20;8.80;;;;;;;5.01;100.00;102754.27;107835;1280;72908;-73
2022/01/24 04:07:59;;;;;;;18.10;9.50;;;;;;;5.04;100.00;102750.27;107827;1280;61448;-72
2022/01/24 04:10:26;;;;;;;22.90;10.90;;;;;;;5.06;100.00;102750.10;107796;1280;59270;-71
2022/01/24 04:12:53;;;;;;;18.90;10.20;;;;;;;5.09;100.00;102749.26;107849;1279;76101;-70
2022/01/24 04:15:41;;;;;;;20.20;10.00;;;;;;;5.10;100.00;102746.93;107800;1280;70257;-70
2022/01/24 04:18:30;;;;;;;19.00;9.40;;;;;;;5.12;100.00;102747.83;107844;1280;74295;-73
2022/01/24 04:23:46;;;;;;;16.00;9.40;;;;;;;5.13;100.00;102740.75;107833;1280;59588;-74
2022/01/24 04:26:13;;;;;;;17.50;9.20;;;;;;;5.12;100.00;102741.73;107856;1281;76640;-72
2022/01/24 04:28:40;;;;;;;14.90;9.40;;;;;;;5.11;100.00;102744.58;107859;1279;71247;-73
2022/01/24 04:31:07;;;;;;;17.00;9.90;;;;;;;5.11;100.00;102744.05;107853;1281;73955;-72
2022/01/24 04:33:34;;;;;;;17.80;10.50;;;;;;;5.10;100.00;102747.27;107873;1280;62689;-72
2022/01/24 04:36:01;;;;;;;19.40;9.30;;;;;;;5.05;100.00;102754.89;107887;1280;61375;-73
2022/01/24 04:38:27;;;;;;;20.10;10.70;;;;;;;5.00;100.00;102753.45;107892;1279;74961;-74
2022/01/24 04:41:01;;;;;;;20.20;9.40;;;;;;;4.95;100.00;102757.44;107836;1281;71390;-73
2022/01/24 04:46:59;;;;;;;19.60;10.30;;;;;;;4.88;100.00;102750.05;107364;1284;61456;-73
2022/01/24 04:54:57;;;;;;;16.80;9.70;;;;;;;4.86;100.00;102752.32;107889;1281;72842;-71
2022/01/24 04:57:26;;;;;;;16.90;9.20;;;;;;;4.84;100.00;102760.99;107818;1281;59125;-74
2022/01/24 04:59:55;;;;;;;17.10;9.90;;;;;;;4.83;100.00;102760.20;107899;1280;60525;-74
2022/01/24 05:02:24;;;;;;;16.80;10.10;;;;;;;4.82;100.00;102760.42;107874;1279;60809;-73
2022/01/24 05:04:56;;;;;;;17.30;9.30;;;;;;;4.82;100.00;102761.11;107814;1280;76166;-72
2022/01/24 05:07:23;;;;;;;17.10;9.60;;;;;;;4.80;100.00;102762.09;107936;1279;72465;-73
2022/01/24 05:09:58;;;;;;;16.00;9.00;;;;;;;4.79;100.00;102764.45;107751;1281;74023;-72
2022/01/24 05:21:23;;;;;;;;;;;;;;;4.78;100.00;102758.88;107900;1279;62402;-72
2022/01/24 05:23:37;;;;;;;16.40;10.30;;;;;;;4.75;100.00;102748.58;107866;1280;72170;-72
2022/01/24 05:26:06;;;;;;;18.20;10.10;;;;;;;4.75;100.00;102752.09;107828;1281;62471;-72
2022/01/24 05:28:34;;;;;;;18.50;10.20;;;;;;;4.72;100.00;102747.29;107896;1280;61718;-71
2022/01/24 05:31:01;;;;;;;19.70;9.50;;;;;;;4.72;100.00;102748.55;107754;1281;75082;-73
2022/01/24 05:33:29;;;;;;;21.10;10.20;;;;;;;4.74;100.00;102752.47;107905;1281;71228;-72
2022/01/24 05:35:56;;;;;;;17.60;9.60;;;;;;;4.75;100.00;102759.08;107878;1280;74571;-72
2022/01/24 05:38:23;;;;;;;20.00;10.70;;;;;;;4.76;100.00;102760.39;107779;1279;60046;-74
2022/01/24 05:40:50;;;;;;;19.40;10.30;;;;;;;4.79;100.00;102755.53;107883;1279;60252;-72
2022/01/24 05:43:17;;;;;;;19.60;10.00;;;;;;;4.80;100.00;102754.06;107911;1280;74924;-71
2022/01/24 05:45:43;;;;;;;19.40;11.20;;;;;;;4.81;100.00;102754.84;107875;1280;72407;-71
2022/01/24 05:48:10;;;;;;;16.90;9.60;;;;;;;4.82;100.00;102757.96;107916;1281;74218;-74
2022/01/24 05:50:37;;;;;;;20.70;9.60;;;;;;;4.83;100.00;102757.40;107903;1280;62903;-72
2022/01/24 05:53:04;;;;;;;19.10;10.10;;;;;;;4.82;100.00;102762.52;107913;1280;60632;-73
2022/01/24 05:55:31;;;;;;;17.80;10.70;;;;;;;4.85;100.00;102759.89;107885;1280;73707;-73
2022/01/24 05:57:58;;;;;;;20.20;10.80;;;;;;;4.88;100.00;102754.66;107915;1279;71517;-73
2022/01/24 06:00:24;;;;;;;19.40;10.60;;;;;;;4.88;100.00;102757.27;107852;1279;58985;-71
2022/01/24 06:02:51;;;;;;;17.60;10.40;;;;;;;4.87;100.00;102762.39;107916;1279;62461;-72
2022/01/24 06:05:18;;;;;;;19.20;10.60;;;;;;;4.86;100.00;102761.92;107895;1281;61897;-74
2022/01/24 06:07:45;;;;;;;21.50;12.00;;;;;;;4.84;100.00;102767.49;107955;1279;74929;-71
2022/01/24 06:10:11;;;;;;;23.60;9.70;;;;;;;4.84;100.00;102767.87;107933;1281;71452;-72
2022/01/24 06:12:38;;;;;;;19.50;10.40;;;;;;;4.83;100.00;102765.08;107908;1280;59234;-72
2022/01/24 06:15:08;;;;;;;13.10;7.50;;;;;;;4.82;100.00;102761.64;107911;1281;61483;-74
2022/01/24 06:17:35;;;;;;;13.60;7.00;;;;;;;4.79;100.00;102757.80;107918;1280;60772;-74
2022/01/24 06:20:02;;;;;;;18.70;10.00;;;;;;;4.76;100.00;102754.65;107933;1279;76318;-72
2022/01/24 06:22:29;;;;;;;18.20;10.10;;;;;;;4.75;100.00;102757.69;107904;1281;72350;-72
2022/01/24 06:24:56;;;;;;;20.30;10.40;;;;;;;4.75;100.00;102754.33;107964;1280;59013;-72
2022/01/24 06:27:39;;;;;;;19.50;10.60;;;;;;;4.76;100.00;102754.96;107987;1278;62229;-72
2022/01/24 06:30:06;;;;;;;21.10;11.60;;;;;;;4.76;100.00;102758.10;107963;1281;60546;-72
2022/01/24 06:32:33;;;;;;;19.20;9.20;;;;;;;4.75;100.00;102754.70;107978;1280;74564;-72
2022/01/24 06:35:00;;;;;;;13.80;8.20;;;;;;;4.73;100.00;102758.46;107962;1281;71531;-73
2022/01/24 06:37:27;;;;;;;20.50;10.80;;;;;;;4.70;100.00;102751.62;107973;1281;74085;-72
2022/01/24 06:39:54;;;;;;;21.00;10.30;;;;;;;4.68;100.00;102745.93;107960;1281;62715;-74
2022/01/24 06:42:23;;;;;;;23.30;11.20;;;;;;;4.68;100.00;102745.77;107974;1280;61638;-72
2022/01/24 06:44:52;;;;;;;20.90;10.90;;;;;;;4.70;100.00;102746.88;107963;1280;76280;-72
2022/01/24 06:47:22;;;;;;;18.50;11.10;;;;;;;4.73;100.00;102750.77;107838;1281;71182;-71
2022/01/24 06:49:50;;;;;;;20.40;10.40;;;;;;;4.74;100.00;102758.23;107954;1281;74184;-72
2022/01/24 06:52:17;;;;;;;21.00;11.00;;;;;;;4.75;100.00;102758.89;107968;1281;62453;-74
2022/01/24 06:54:44;;;;;;;16.30;9.80;;;;;;;4.75;100.00;102758.58;107851;1278;60695;-72
2022/01/24 06:57:12;;;;;;;19.70;10.90;;;;;;;4.75;100.00;102753.46;107889;1281;75142;-74
2022/01/24 06:59:43;;;;;;;19.50;11.40;;;;;;;4.77;100.00;102754.58;107992;1281;71978;-72
2022/01/24 07:02:12;;;;;;;19.00;10.20;;;;;;;4.77;100.00;102754.04;107979;1281;73098;-72
2022/01/24 07:04:41;;;;;;;20.70;11.20;;;;;;;4.76;100.00;102754.98;107706;1281;62377;-72
2022/01/24 07:07:10;;;;;;;20.30;11.40;;;;;;;4.75;100.00;102759.96;107757;1281;61637;-72
2022/01/24 07:09:37;;;;;;;21.90;11.10;;;;;;;4.74;100.00;102763.52;107996;1280;76058;-74
2022/01/24 07:12:07;;;;;;;19.50;11.30;;;;;;;4.74;100.00;102769.27;107940;1280;70576;-74
2022/01/24 07:14:34;;;;;;;28.20;11.30;;;;;;;4.74;100.00;102770.71;107950;1280;73272;-73
2022/01/24 07:17:14;;;;;;;20.10;10.50;;;;;;;4.74;100.00;102766.85;107968;1279;60989;-74
2022/01/24 07:19:41;;;;;;;24.90;12.00;;;;;;;4.74;100.00;102766.33;108053;1279;60741;-73
2022/01/24 07:22:10;;;;;;;19.50;10.90;;;;;;;4.75;100.00;102763.65;108016;1281;75934;-74
2022/01/24 07:24:37;;;;;;;22.70;11.50;;;;;;;4.73;100.00;102763.54;107998;1280;71528;-74
2022/01/24 07:27:05;;;;;;;25.00;12.00;;;;;;;4.74;100.00;102767.54;107608;1279;526012;-74
2022/01/24 07:29:32;;;;;;;20.30;11.80;;;;;;;4.75;100.00;102767.48;107968;1280;61508;-73
2022/01/24 07:31:58;;;;;;;16.30;9.30;;;;;;;4.77;100.00;102764.04;107957;1279;60337;-71
2022/01/24 07:34:25;;;;;;;16.50;10.30;;;;;;;4.77;100.00;102765.77;107971;1281;76182;-72
2022/01/24 07:36:52;;;;;;;19.60;10.70;;;;;;;4.75;100.00;102763.25;107735;1281;72863;-74
2022/01/24 07:39:19;;;;;;;21.70;11.50;;;;;;;4.76;100.00;102771.13;107944;1280;72437;-72
2022/01/24 07:41:47;;;;;;;22.20;12.10;;;;;;;4.76;100.00;102765.69;107996;1279;59107;-72
2022/01/24 07:44:15;;;;;;;20.80;11.40;;;;;;;4.75;100.00;102769.22;107954;1280;59826;-71
2022/01/24 07:46:42;;;;;;;19.90;11.20;;;;;;;4.78;100.00;102773.10;107761;1281;74936;-72
2022/01/24 07:49:12;;;;;;;21.10;11.00;;;;;;;4.81;100.00;102771.36;107738;1281;71389;-73
2022/01/24 07:51:40;;;;;;;22.60;12.50;;;;;;;4.83;100.00;102769.13;107941;1281;73642;-74
2022/01/24 07:54:08;;;;;;;20.10;11.50;;;;;;;4.83;100.00;102766.16;107937;1281;62596;-72
2022/01/24 07:56:36;;;;;;;22.60;11.50;;;;;;;4.82;100.00;102769.55;108012;1280;60612;-74
2022/01/24 07:59:03;;;;;;;20.00;11.30;;;;;;;4.81;100.00;102773.80;107747;1281;74977;-72
2022/01/24 08:01:30;;;;;;;21.70;12.30;;;;;;;4.82;100.00;102769.31;108006;1281;72263;-71
2022/01/24 08:03:57;;;;;;;24.50;12.60;;;;;;;4.84;100.00;102767.52;107979;1280;73331;-72
2022/01/24 08:06:23;;;;;;;24.00;12.20;;;;;;;4.83;100.00;102766.65;107960;1281;61556;-72
2022/01/24 08:08:50;;;;;;;19.30;11.20;;;;;;;4.85;100.00;102766.56;107964;1281;60625;-74
2022/01/24 08:11:18;;;;;;;21.30;12.20;;;;;;;4.84;100.00;102764.84;107939;1280;74947;-74
2022/01/24 08:13:45;;;;;;;20.50;11.60;;;;;;;4.83;100.00;102758.45;107988;1281;72580;-72
2022/01/24 08:16:13;;;;;;;25.40;12.70;;;;;;;4.81;100.00;102758.71;107946;1280;74081;-72
2022/01/24 08:18:40;;;;;;;26.70;12.40;;;;;;;4.80;100.00;102767.90;107807;1281;62565;-71
2022/01/24 08:21:06;;;;;;;24.30;13.10;;;;;;;4.80;100.00;102770.70;107943;1281;60654;-71
2022/01/24 08:23:33;;;;;;;26.10;13.70;;;;;;;4.81;100.00;102767.82;107951;1280;59026;-74
2022/01/24 08:26:00;;;;;;;24.20;12.00;;;;;;;4.83;100.00;102769.33;107929;1280;71576;-74
2022/01/24 08:28:26;;;;;;;22.80;11.80;;;;;;;4.85;100.00;102767.95;107801;1281;73013;-74
2022/01/24 08:30:53;;;;;;;27.00;13.90;;;;;;;4.85;100.00;102767.09;107963;1280;61737;-72
2022/01/24 08:33:20;;;;;;;24.90;12.10;;;;;;;4.85;100.00;102765.48;107917;1280;60619;-71
2022/01/24 08:35:47;;;;;;;24.90;12.40;;;;;;;4.88;100.00;102763.03;107802;1280;75060;-71
2022/01/24 08:38:14;;;;;;;26.10;13.00;;;;;;;4.90;100.00;102762.07;107833;1281;72347;-74
2022/01/24 08:40:41;;;;;;;22.90;12.40;;;;;;;4.89;100.00;102764.20;107813;1280;73032;-72
2022/01/24 08:43:08;;;;;;;24.80;13.50;;;;;;;4.92;100.00;102764.44;107711;1281;60784;-72
2022/01/24 08:45:48;;;;;;;23.60;12.70;;;;;;;4.94;100.00;102763.80;107892;1279;61705;-72
2022/01/24 08:48:17;;;;;;;22.90;11.90;;;;;;;4.95;100.00;102760.24;107935;1281;76046;-72
2022/01/24 08:50:44;;;;;;;22.10;11.20;;;;;;;4.94;100.00;102758.67;108003;1279;72976;-74
2022/01/24 08:53:11;;;;;;;23.90;12.50;;;;;;;4.96;100.00;102765.28;107844;1281;72996;-74
2022/01/24 08:55:39;;;;;;;25.30;12.70;;;;;;;4.98;100.00;102762.02;107931;1280;62544;-73
2022/01/24 08:58:11;;;;;;;25.70;12.00;;;;;;;4.99;100.00;102761.89;107843;1281;60756;-74
2022/01/24 09:00:37;;;;;;;24.20;12.30;;;;;;;5.00;100.00;102760.66;107914;1280;75916;-72
2022/01/24 09:03:05;;;;;;;23.50;12.90;;;;;;;5.02;100.00;102759.48;107963;1279;71212;-74
2022/01/24 09:05:35;;;;;;;19.30;11.20;;;;;;;5.03;100.00;102763.95;107911;1280;73608;-74
2022/01/24 09:08:05;;;;;;;19.40;9.00;;;;;;;5.04;100.00;102770.05;107930;1281;60193;-74
2022/01/24 09:10:34;;;;;;;23.10;12.30;;;;;;;5.04;100.00;102764.98;107962;1281;61327;-73
2022/01/24 09:13:01;;;;;;;27.10;13.40;;;;;;;5.05;100.00;102765.79;107959;1279;75735;-72
2022/01/24 09:15:28;;;;;;;24.20;12.50;;;;;;;5.07;100.00;102769.86;107953;1279;71525;-73
2022/01/24 09:17:58;;;;;;;28.20;12.60;;;;;;;5.12;100.00;102768.19;107903;1280;74153;-74
2022/01/24 09:20:25;;;;;;;25.70;12.80;;;;;;;5.15;100.00;102768.55;107955;1280;61438;-75
2022/01/24 09:22:52;;;;;;;23.30;11.50;;;;;;;5.18;100.00;102766.95;107977;1279;60605;-75
2022/01/24 09:25:20;;;;;;;23.60;12.10;;;;;;;5.22;100.00;102767.64;107955;1279;73926;-74
2022/01/24 09:27:47;;;;;;;29.70;14.00;;;;;;;5.23;100.00;102765.45;107875;1281;71442;-72
2022/01/24 09:30:18;;;;;;;26.50;12.70;;;;;;;5.24;100.00;102761.69;107955;1279;72922;-72
2022/01/24 09:32:45;;;;;;;27.40;12.80;;;;;;;5.28;100.00;102761.09;107968;1279;61472;-72
2022/01/24 09:35:13;;;;;;;23.10;10.30;;;;;;;5.30;100.00;102762.56;107959;1279;59588;-74
2022/01/24 09:37:40;;;;;;;23.00;12.20;;;;;;;5.31;100.00;102761.14;107972;1279;74876;-73
2022/01/24 09:40:09;;;;;;;18.10;10.20;;;;;;;5.33;100.00;102762.06;107733;1279;71403;-73
2022/01/24 09:42:35;;;;;;;23.80;12.90;;;;;;;5.33;100.00;102763.81;107964;1279;73991;-75
2022/01/24 09:45:03;;;;;;;23.80;12.60;;;;;;;5.34;100.00;102763.46;107959;1279;61519;-74
2022/01/24 09:47:34;;;;;;;24.00;12.40;;;;;;;5.33;100.00;102766.78;107972;1279;61598;-75
2022/01/24 09:50:04;;;;;;;33.00;15.20;;;;;;;5.37;100.00;102767.29;107966;1279;73352;-74
2022/01/24 09:52:31;;;;;;;27.10;14.10;;;;;;;5.43;100.00;102770.98;107781;1281;72807;-75
2022/01/24 09:54:57;;;;;;;28.50;15.00;;;;;;;5.47;100.00;102769.51;107848;1279;72948;-75
2022/01/24 09:57:24;;;;;;;25.00;13.30;;;;;;;5.51;100.00;102764.71;107804;1281;61488;-74
2022/01/24 09:59:52;;;;;;;23.50;12.30;;;;;;;5.54;100.00;102761.71;107984;1279;60296;-75
2022/01/24 10:02:23;;;;;;;23.80;12.70;;;;;;;5.56;100.00;102761.08;107790;1280;74667;-77
2022/01/24 10:04:51;;;;;;;24.10;12.70;;;;;;;5.56;100.00;102761.55;107928;1280;71160;-76
2022/01/24 10:07:18;;;;;;;21.10;11.60;;;;;;;5.57;100.00;102759.09;107702;1281;73099;-76
2022/01/24 10:09:45;;;;;;;24.60;12.70;;;;;;;5.61;100.00;102759.34;107959;1279;61749;-77
2022/01/24 10:17:39;;;;;;;21.90;11.80;;;;;;;5.72;100.00;102751.16;107968;1281;70385;-77
2022/01/24 10:20:43;;;;;;;22.40;12.50;;;;;;;5.75;100.00;102750.83;107964;1279;74010;-76
2022/01/24 10:23:16;;;;;;;21.00;11.10;;;;;;;5.77;100.00;102754.55;107984;1279;62240;-76
2022/01/24 10:26:02;;;;;;;21.90;11.50;;;;;;;5.78;100.00;102757.30;107935;1281;59399;-77
2022/01/24 10:28:40;;;;;;;26.40;12.20;;;;;;;5.78;100.00;102755.53;107949;1279;75997;-76
2022/01/24 10:31:09;;;;;;;25.20;11.50;;;;;;;5.81;100.00;102756.45;107963;1280;72475;-77
2022/01/24 10:34:03;;;;;;;17.90;10.30;;;;;;;5.82;100.00;102757.43;107982;1279;73380;-76
2022/01/24 10:36:39;;;;;;;19.60;10.10;;;;;;;5.81;100.00;102758.91;107956;1279;62278;-76
2022/01/24 10:40:20;;;;;;;18.40;10.60;;;;;;;5.81;100.00;102757.10;107947;1279;60639;-76
2022/01/24 10:45:01;;;;;;;15.00;8.10;;;;;;;5.85;100.00;102754.21;107688;1281;70304;-76
2022/01/24 10:47:31;;;;;;;14.90;8.30;;;;;;;5.85;100.00;102750.91;107980;1279;72991;-77
2022/01/24 10:50:01;;;;;;;17.80;9.00;;;;;;;5.85;100.00;102753.39;107713;1281;61964;-77
2022/01/24 10:52:31;;;;;;;12.20;6.90;;;;;;;5.86;100.00;102748.89;107872;1279;60641;-77
2022/01/24 10:55:19;;;;;;;15.60;7.80;;;;;;;5.86;99.98;102747.35;108002;1279;74943;-77
2022/01/24 10:57:48;;;;;;;18.60;9.90;;;;;;;5.87;100.00;102746.91;107969;1279;71565;-75
2022/01/24 11:00:23;;;;;;;14.10;7.40;;;;;;;5.88;100.00;102748.22;107977;1280;72678;-76
2022/01/24 11:02:53;;;;;;;12.60;6.40;;;;;;;5.87;98.93;102751.79;107987;1279;61160;-76
2022/01/24 11:05:25;;;;;;;9.40;5.30;;;;;;;5.88;98.86;102753.50;107727;1281;60478;-76
2022/01/24 11:07:58;;;;;;;16.50;8.50;;;;;;;5.88;99.11;102752.80;108011;1279;75027;-77
2022/01/24 11:10:30;;;;;;;11.70;6.50;;;;;;;5.90;99.35;102753.07;107980;1280;72828;-76
2022/01/24 11:12:57;;;;;;;11.50;6.40;;;;;;;5.90;98.42;102753.58;107952;1279;73203;-77
2022/01/24 11:15:25;;;;;;;12.20;6.60;;;;;;;5.89;97.62;102750.64;107742;1281;61103;-76
2022/01/24 11:17:53;;;;;;;9.80;5.40;;;;;;;5.90;97.60;102751.84;107503;1281;62212;-77
2022/01/24 11:20:21;;;;;;;10.90;6.20;;;;;;;5.91;97.69;102750.70;107703;1281;75022;-76
2022/01/24 11:22:58;;;;;;;11.60;7.40;;;;;;;5.94;97.75;102746.65;107696;1280;72354;-76
2022/01/24 11:25:27;;;;;;;9.20;5.20;;;;;;;5.97;97.42;102742.80;107818;1281;71959;-77
2022/01/24 11:27:54;;;;;;;12.90;7.00;;;;;;;6.01;97.68;102738.38;107974;1280;63363;-77
2022/01/24 11:30:23;;;;;;;7.20;4.00;;;;;;;6.04;97.53;102726.05;107863;1281;61642;-77
2022/01/24 11:32:58;;;;;;;9.50;4.80;;;;;;;6.05;96.18;102727.39;107991;1279;75111;-77
2022/01/24 11:35:45;;;;;;;6.80;4.40;;;;;;;6.06;95.88;102728.19;108028;1280;72465;-77
2022/01/24 11:38:35;;;;;;;9.30;4.80;;;;;;;6.06;94.91;102728.35;107868;1281;73005;-77
2022/01/24 11:41:24;;;;;;;5.50;3.10;;;;;;;6.05;93.83;102722.28;107985;1280;62186;-76
2022/01/24 11:44:06;;;;;;;4.00;1.90;;;;;;;6.03;92.71;102721.91;108013;1280;60543;-77
2022/01/24 11:46:48;;;;;;;3.20;2.00;;;;;;;6.03;92.67;102718.21;107759;1281;74730;-76
2022/01/24 11:49:27;;;;;;;3.80;2.20;;;;;;;6.01;91.88;102714.83;108027;1280;72485;-76
2022/01/24 11:52:10;;;;;;;2.80;1.70;;;;;;;5.99;90.66;102709.15;108010;1279;72658;-77
2022/01/24 11:57:37;;;;;;;3.70;1.80;;;;;;;5.93;90.48;102712.14;108042;1279;60351;-77
2022/01/24 12:02:37;;;;;;;3.60;2.20;;;;;;;5.92;91.00;102711.11;108049;1279;59339;-76
2022/01/24 12:05:37;;;;;;;3.20;1.90;;;;;;;5.91;89.93;102711.55;107990;1281;74209;-77
2022/01/24 12:08:07;;;;;;;3.00;1.60;;;;;;;5.86;88.99;102712.90;107989;1281;62189;-77
2022/01/24 12:10:58;;;;;;;3.40;2.00;;;;;;;5.85;90.15;102709.64;108017;1279;63138;-77
2022/01/24 12:13:35;;;;;;;3.90;2.10;;;;;;;5.85;90.39;102705.77;108007;1280;74940;-77
2022/01/24 12:16:07;;;;;;;4.60;2.70;;;;;;;5.85;90.42;102702.63;107944;1278;71540;-77
2022/01/24 12:18:34;;;;;;;4.30;2.30;;;;;;;5.83;89.88;102698.55;108006;1280;72683;-77
2022/01/24 12:21:01;;;;;;;2.90;1.80;;;;;;;5.81;90.08;102697.41;107978;1279;63507;-77
2022/01/24 12:23:35;;;;;;;3.10;2.10;;;;;;;5.77;89.95;102700.98;108032;1280;59098;-77
2022/01/24 12:26:25;;;;;;;3.80;2.30;;;;;;;5.77;90.73;102696.83;108016;1279;78393;-77
2022/01/24 12:29:03;;;;;;;3.80;2.00;;;;;;;5.77;90.85;102691.55;108025;1280;71338;-75
2022/01/24 12:31:38;;;;;;;3.80;1.90;;;;;;;5.76;91.41;102687.19;108010;1279;72062;-76
2022/01/24 12:34:15;;;;;;;4.10;2.30;;;;;;;5.77;91.61;102691.71;108019;1278;62262;-77
2022/01/24 12:37:00;;;;;;;4.40;2.00;;;;;;;5.74;90.76;102692.92;108036;1278;60788;-77
2022/01/24 12:39:53;;;;;;;2.90;2.00;;;;;;;5.69;90.49;102691.65;107905;1279;76029;-76
2022/01/24 12:42:36;;;;;;;3.30;2.20;;;;;;;5.65;91.19;102690.46;107855;1279;72793;-77
2022/01/24 12:47:56;;;;;;;4.20;2.50;;;;;;;5.63;91.15;102686.06;107999;1279;61245;-77
2022/01/24 12:50:24;;;;;;;3.10;1.80;;;;;;;5.61;91.46;102683.19;108047;1279;60692;-78
2022/01/24 12:52:53;;;;;;;2.70;1.90;;;;;;;5.59;91.05;102688.39;108003;1280;74615;-78
2022/01/24 12:55:19;;;;;;;3.00;1.70;;;;;;;5.58;91.14;102689.70;107905;1281;72004;-78
2022/01/24 12:57:46;;;;;;;4.00;1.60;;;;;;;5.51;90.68;102684.17;107999;1279;72617;-77
2022/01/24 13:00:16;;;;;;;5.80;1.90;;;;;;;5.51;90.62;102691.15;108023;1279;62536;-78
2022/01/24 13:02:43;;;;;;;2.70;1.80;;;;;;;5.49;90.66;102692.18;108036;1281;59930;-78
2022/01/24 13:05:15;;;;;;;2.80;1.80;;;;;;;5.47;90.96;102693.13;108034;1279;75024;-78
2022/01/24 13:07:51;;;;;;;3.30;1.40;;;;;;;5.46;91.07;102692.51;107639;1279;71389;-77
2022/01/24 13:10:24;;;;;;;3.40;1.70;;;;;;;5.43;90.68;102693.55;107982;1279;73033;-76